createdAt,value
2022-08-03T00:00:15.541Z,98533.69
2022-08-03T00:00:28.905Z,98533.00
2022-08-03T00:00:41.855Z,98531.28
2022-08-03T00:00:54.769Z,98530.59
2022-08-03T00:01:08.070Z,98530.59
2022-08-03T00:01:21.102Z,98530.59
2022-08-03T00:01:34.748Z,98534.00
2022-08-03T00:01:47.797Z,98534.69
2022-08-03T00:02:01.922Z,98533.00
2022-08-03T00:02:16.981Z,98531.97
2022-08-03T00:02:30.182Z,98528.28
2022-08-03T00:02:43.284Z,98528.28
2022-08-03T00:02:57.214Z,98534.56
2022-08-03T00:03:10.327Z,98536.38
2022-08-03T00:03:27.973Z,98533.84
2022-08-03T00:03:45.571Z,98533.16
2022-08-03T00:03:58.521Z,98536.00
2022-08-03T00:04:11.569Z,98531.44
2022-08-03T00:04:33.570Z,98533.28
2022-08-03T00:04:47.545Z,98534.31
2022-08-03T00:05:00.405Z,98530.75
2022-08-03T00:05:13.320Z,98533.44
2022-08-03T00:05:26.209Z,98539.72
2022-08-03T00:05:39.765Z,98532.44
2022-08-03T00:06:04.579Z,98533.28
2022-08-03T00:06:17.912Z,98534.31
2022-08-03T00:06:36.773Z,98532.59
2022-08-03T00:06:50.458Z,98539.72
2022-08-03T00:07:03.403Z,98537.00
2022-08-03T00:07:16.722Z,98532.28
2022-08-03T00:07:29.582Z,98530.28
2022-08-03T00:07:42.603Z,98530.59
2022-08-03T00:07:55.438Z,98529.03
2022-08-03T00:08:08.782Z,98535.31
2022-08-03T00:08:22.476Z,98525.50
2022-08-03T00:08:40.198Z,98533.91
2022-08-03T00:08:53.328Z,98523.94
2022-08-03T00:09:06.236Z,98530.34
2022-08-03T00:09:19.162Z,98533.06
2022-08-03T00:09:35.592Z,98532.91
2022-08-03T00:09:48.922Z,98524.94
2022-08-03T00:10:01.808Z,98533.91
2022-08-03T00:10:14.690Z,98535.03
2022-08-03T00:10:27.569Z,98536.88
2022-08-03T00:10:40.412Z,98530.47
2022-08-03T00:10:53.334Z,98536.63
2022-08-03T00:11:07.224Z,98532.06
2022-08-03T00:11:20.186Z,98528.19
2022-08-03T00:11:33.193Z,98541.03
2022-08-03T00:11:46.060Z,98536.63
2022-08-03T00:11:58.943Z,98532.06
2022-08-03T00:12:12.048Z,98533.91
2022-08-03T00:12:33.294Z,98531.31
2022-08-03T00:12:46.229Z,98537.47
2022-08-03T00:12:59.201Z,98537.31
2022-08-03T00:13:13.251Z,98540.72
2022-08-03T00:13:26.388Z,98533.91
2022-08-03T00:13:41.445Z,98533.19
2022-08-03T00:13:54.494Z,98532.47
2022-08-03T00:14:07.623Z,98537.03
2022-08-03T00:14:20.932Z,98535.03
2022-08-03T00:14:34.276Z,98533.34
2022-08-03T00:14:47.176Z,98536.75
2022-08-03T00:15:00.388Z,98535.03
2022-08-03T00:15:15.157Z,98537.59
2022-08-03T00:15:29.955Z,98536.63
2022-08-03T00:15:43.038Z,98535.63
2022-08-03T00:15:56.026Z,98532.06
2022-08-03T00:16:10.761Z,98541.03
2022-08-03T00:16:25.275Z,98540.03
2022-08-03T00:16:38.246Z,98545.44
2022-08-03T00:16:51.321Z,98533.19
2022-08-03T00:17:04.210Z,98534.03
2022-08-03T00:17:17.266Z,98533.19
2022-08-03T00:17:30.185Z,98537.75
2022-08-03T00:18:02.962Z,98534.03
2022-08-03T00:18:15.790Z,98533.59
2022-08-03T00:18:28.726Z,98538.31
2022-08-03T00:18:41.739Z,98548.13
2022-08-03T00:18:54.759Z,98535.03
2022-08-03T00:19:07.697Z,98534.50
2022-08-03T00:19:20.669Z,98544.47
2022-08-03T00:19:33.732Z,98539.75
2022-08-03T00:19:47.111Z,98534.88
2022-08-03T00:19:59.953Z,98538.47
2022-08-03T00:20:12.836Z,98538.47
2022-08-03T00:20:25.770Z,98535.75
2022-08-03T00:20:38.659Z,98536.75
2022-08-03T00:20:51.660Z,98534.03
2022-08-03T00:21:04.787Z,98538.47
2022-08-03T00:21:17.658Z,98541.19
2022-08-03T00:21:30.578Z,98540.28
2022-08-03T00:21:43.576Z,98535.88
2022-08-03T00:21:56.964Z,98544.00
2022-08-03T00:22:10.004Z,98535.88
2022-08-03T00:22:27.877Z,98542.16
2022-08-03T00:22:40.773Z,98534.88
2022-08-03T00:22:53.639Z,98543.31
2022-08-03T00:23:06.811Z,98537.19
2022-08-03T00:23:19.972Z,98540.91
2022-08-03T00:23:52.096Z,98543.47
2022-08-03T00:24:05.852Z,98546.00
2022-08-03T00:24:18.917Z,98544.84
2022-08-03T00:24:32.172Z,98545.72
2022-08-03T00:24:45.206Z,98542.31
2022-08-03T00:24:58.095Z,98546.00
2022-08-03T00:25:11.709Z,98535.34
2022-08-03T00:25:27.180Z,98547.00
2022-08-03T00:25:40.070Z,98537.19
2022-08-03T00:25:53.374Z,98542.59
2022-08-03T00:26:06.277Z,98546.00
2022-08-03T00:26:19.386Z,98546.00
2022-08-03T00:26:32.304Z,98542.31
2022-08-03T00:26:45.306Z,98539.75
2022-08-03T00:26:58.412Z,98541.28
2022-08-03T00:27:11.281Z,98539.44
2022-08-03T00:27:29.635Z,98537.75
2022-08-03T00:27:45.689Z,98542.31
2022-08-03T00:28:01.749Z,98542.31
2022-08-03T00:28:14.628Z,98537.03
2022-08-03T00:28:28.362Z,98544.47
2022-08-03T00:28:42.048Z,98544.91
2022-08-03T00:28:55.036Z,98538.66
2022-08-03T00:29:07.906Z,98542.91
2022-08-03T00:29:20.787Z,98542.91
2022-08-03T00:29:33.659Z,98542.91
2022-08-03T00:30:07.263Z,98538.34
2022-08-03T00:30:20.213Z,98540.75
2022-08-03T00:30:33.219Z,98537.19
2022-08-03T00:30:46.137Z,98544.31
2022-08-03T00:30:59.006Z,98540.59
2022-08-03T00:31:13.337Z,98540.59
2022-08-03T00:31:52.125Z,98543.31
2022-08-03T00:32:00.404Z,98538.06
2022-08-03T00:32:14.157Z,98543.88
2022-08-03T00:32:27.320Z,98549.72
2022-08-03T00:32:45.002Z,98553.03
2022-08-03T00:32:58.744Z,98542.22
2022-08-03T00:33:12.476Z,98542.91
2022-08-03T00:33:27.526Z,98542.91
2022-08-03T00:33:57.981Z,98548.16
2022-08-03T00:34:12.535Z,98544.63
2022-08-03T00:34:36.178Z,98544.47
2022-08-03T00:34:54.331Z,98540.59
2022-08-03T00:35:14.779Z,98546.31
2022-08-03T00:35:50.653Z,98542.75
2022-08-03T00:36:04.557Z,98546.31
2022-08-03T00:36:18.503Z,98547.88
2022-08-03T00:36:31.518Z,98539.91
2022-08-03T00:36:44.406Z,98542.47
2022-08-03T00:36:57.314Z,98548.03
2022-08-03T00:37:10.350Z,98549.72
2022-08-03T00:37:23.196Z,98548.16
2022-08-03T00:37:54.098Z,98544.91
2022-08-03T00:38:07.160Z,98549.19
2022-08-03T00:38:20.519Z,98545.78
2022-08-03T00:38:33.370Z,98541.38
2022-08-03T00:38:46.244Z,98547.63
2022-08-03T00:39:01.140Z,98550.34
2022-08-03T00:39:15.115Z,98546.63
2022-08-03T00:39:28.005Z,98551.19
2022-08-03T00:39:41.038Z,98546.63
2022-08-03T00:39:53.890Z,98550.03
2022-08-03T00:40:13.656Z,98541.91
2022-08-03T00:40:26.713Z,98547.31
2022-08-03T00:40:40.414Z,98548.31
2022-08-03T00:40:56.498Z,98544.63
2022-08-03T00:41:09.412Z,98550.03
2022-08-03T00:41:22.359Z,98542.91
2022-08-03T00:41:35.473Z,98548.31
2022-08-03T00:41:48.907Z,98547.63
2022-08-03T00:42:07.550Z,98545.06
2022-08-03T00:42:20.443Z,98547.19
2022-08-03T00:42:33.475Z,98545.34
2022-08-03T00:42:50.857Z,98547.91
2022-08-03T00:43:05.267Z,98548.75
2022-08-03T00:43:18.508Z,98547.91
2022-08-03T00:43:31.625Z,98546.91
2022-08-03T00:44:04.677Z,98547.91
2022-08-03T00:44:17.618Z,98540.09
2022-08-03T00:44:30.705Z,98547.19
2022-08-03T00:44:44.125Z,98543.78
2022-08-03T00:44:57.493Z,98547.19
2022-08-03T00:45:10.471Z,98551.59
2022-08-03T00:45:30.022Z,98550.59
2022-08-03T00:45:43.154Z,98549.59
2022-08-03T00:45:57.141Z,98544.06
2022-08-03T00:46:09.986Z,98546.91
2022-08-03T00:46:22.872Z,98547.78
2022-08-03T00:46:35.735Z,98548.62
2022-08-03T00:46:49.801Z,98550.59
2022-08-03T00:47:03.721Z,98548.91
2022-08-03T00:47:16.560Z,98550.59
2022-08-03T00:47:29.472Z,98550.47
2022-08-03T00:47:42.842Z,98544.50
2022-08-03T00:47:55.759Z,98550.06
2022-08-03T00:48:29.737Z,98546.50
2022-08-03T00:48:42.825Z,98547.34
2022-08-03T00:48:55.754Z,98541.25
2022-08-03T00:49:08.784Z,98544.81
2022-08-03T00:49:21.749Z,98541.09
2022-08-03T00:49:34.723Z,98542.78
2022-08-03T00:49:47.643Z,98541.78
2022-08-03T00:50:00.641Z,98546.34
2022-08-03T00:50:13.933Z,98550.06
2022-08-03T00:50:27.945Z,98549.91
2022-08-03T00:50:42.565Z,98550.59
2022-08-03T00:50:55.594Z,98544.34
2022-08-03T00:51:08.525Z,98543.50
2022-08-03T00:51:21.533Z,98547.50
2022-08-03T00:51:34.410Z,98549.22
2022-08-03T00:51:47.550Z,98552.91
2022-08-03T00:52:09.677Z,98551.75
2022-08-03T00:52:22.949Z,98547.03
2022-08-03T00:52:35.883Z,98551.75
2022-08-03T00:52:49.755Z,98549.22
2022-08-03T00:53:03.457Z,98548.19
2022-08-03T00:53:16.516Z,98550.91
2022-08-03T00:53:31.730Z,98548.19
2022-08-03T00:53:45.812Z,98544.81
2022-08-03T00:53:58.882Z,98542.09
2022-08-03T00:54:11.743Z,98545.81
2022-08-03T00:54:25.104Z,98542.94
2022-08-03T00:54:38.811Z,98542.09
2022-08-03T00:54:51.781Z,98552.06
2022-08-03T00:55:05.087Z,98551.22
2022-08-03T00:55:18.119Z,98539.69
2022-08-03T00:55:31.388Z,98553.06
2022-08-03T00:55:45.664Z,98545.09
2022-08-03T00:55:58.864Z,98549.66
2022-08-03T00:56:15.025Z,98547.81
2022-08-03T00:56:27.952Z,98551.22
2022-08-03T00:56:40.973Z,98547.66
2022-08-03T00:57:13.244Z,98545.97
2022-08-03T00:57:26.110Z,98548.34
2022-08-03T00:57:39.188Z,98545.81
2022-08-03T00:57:52.176Z,98546.81
2022-08-03T00:58:06.742Z,98545.09
2022-08-03T00:58:19.918Z,98543.25
2022-08-03T00:58:32.812Z,98550.50
2022-08-03T00:58:46.018Z,98554.19
2022-08-03T00:58:58.882Z,98545.34
2022-08-03T00:59:11.742Z,98545.09
2022-08-03T00:59:27.490Z,98547.81
2022-08-03T00:59:40.472Z,98537.97
2022-08-03T00:59:53.386Z,98549.50
2022-08-03T01:00:07.387Z,98549.50
2022-08-03T01:00:22.713Z,98546.06
2022-08-03T01:00:38.949Z,98547.06
2022-08-03T01:00:52.004Z,98541.78
2022-08-03T01:01:07.177Z,98549.78
2022-08-03T01:01:20.342Z,98545.34
2022-08-03T01:01:33.356Z,98544.50
2022-08-03T01:01:46.358Z,98545.22
2022-08-03T01:01:59.735Z,98548.66
2022-08-03T01:02:12.639Z,98545.09
2022-08-03T01:02:26.022Z,98546.06
2022-08-03T01:02:39.408Z,98546.06
2022-08-03T01:02:53.192Z,98543.25
2022-08-03T01:03:10.123Z,98544.09
2022-08-03T01:03:22.970Z,98551.22
2022-08-03T01:03:36.080Z,98545.97
2022-08-03T01:03:48.973Z,98548.03
2022-08-03T01:04:01.894Z,98546.81
2022-08-03T01:04:14.765Z,98545.22
2022-08-03T01:04:28.141Z,98547.94
2022-08-03T01:04:41.000Z,98548.03
2022-08-03T01:04:53.939Z,98551.91
2022-08-03T01:05:07.593Z,98549.19
2022-08-03T01:05:23.221Z,98545.50
2022-08-03T01:05:45.995Z,98552.47
2022-08-03T01:06:05.227Z,98552.47
2022-08-03T01:06:19.519Z,98553.75
2022-08-03T01:06:46.356Z,98555.47
2022-08-03T01:07:27.146Z,98554.59
2022-08-03T01:07:54.822Z,98553.75
2022-08-03T01:08:22.649Z,98548.94
2022-08-03T01:08:44.137Z,98550.34
2022-08-03T01:09:34.110Z,98544.94
2022-08-03T01:10:00.227Z,98543.94
2022-08-03T01:10:18.596Z,98540.69
2022-08-03T01:10:42.117Z,98548.94
2022-08-03T01:11:17.004Z,98544.53
2022-08-03T01:11:37.584Z,98547.25
2022-08-03T01:12:53.128Z,98547.94
2022-08-03T01:27:57.075Z,98549.47
2022-08-03T01:28:35.766Z,98549.47
2022-08-03T01:29:16.027Z,98561.09
2022-08-03T01:29:34.757Z,98558.66
2022-08-03T01:30:04.594Z,98559.50
2022-08-03T01:30:17.485Z,98556.94
2022-08-03T01:30:31.714Z,98562.34
2022-08-03T01:30:45.921Z,98561.34
2022-08-03T01:31:00.537Z,98558.09
2022-08-03T01:31:20.453Z,98554.41
2022-08-03T01:32:52.495Z,98559.81
2022-08-03T01:33:01.820Z,98560.81
2022-08-03T01:33:02.687Z,98567.75
2022-08-03T01:33:18.721Z,98560.94
2022-08-03T01:33:51.710Z,98560.09
2022-08-03T01:34:09.255Z,98562.97
2022-08-03T01:34:31.061Z,98555.00
2022-08-03T01:34:47.856Z,98563.97
2022-08-03T01:35:14.417Z,98562.97
2022-08-03T01:35:38.757Z,98563.50
2022-08-03T01:35:59.185Z,98562.34
2022-08-03T01:36:16.432Z,98561.34
2022-08-03T01:36:35.646Z,98568.47
2022-08-03T01:36:50.777Z,98566.91
2022-08-03T01:37:04.327Z,98562.66
2022-08-03T01:37:21.981Z,98557.09
2022-08-03T01:38:04.194Z,98551.53
2022-08-03T01:38:43.982Z,98556.09
2022-08-03T01:39:01.089Z,98561.81
2022-08-03T01:39:13.947Z,98564.66
2022-08-03T01:39:26.815Z,98560.81
2022-08-03T01:39:40.020Z,98560.81
2022-08-03T01:39:54.011Z,98560.66
2022-08-03T01:40:09.696Z,98561.50
2022-08-03T01:40:22.616Z,98557.09
2022-08-03T01:40:35.768Z,98566.06
2022-08-03T01:40:49.196Z,98557.25
2022-08-03T01:41:21.790Z,98558.09
2022-08-03T01:41:42.936Z,98558.09
2022-08-03T01:42:02.387Z,98561.81
2022-08-03T01:42:15.396Z,98554.00
2022-08-03T01:42:28.385Z,98556.69
2022-08-03T01:42:41.561Z,98562.09
2022-08-03T01:42:55.662Z,98562.09
2022-08-03T01:43:09.552Z,98559.25
2022-08-03T01:44:28.125Z,98561.66
2022-08-03T01:44:30.311Z,98558.09
2022-08-03T01:44:37.443Z,98560.09
2022-08-03T01:44:50.320Z,98562.09
2022-08-03T01:45:03.460Z,98557.69
2022-08-03T01:45:18.656Z,98557.69
2022-08-03T01:45:34.072Z,98562.97
2022-08-03T01:45:47.290Z,98555.84
2022-08-03T01:46:00.165Z,98557.56
2022-08-03T01:46:13.056Z,98562.09
2022-08-03T01:46:25.959Z,98562.09
2022-08-03T01:46:39.142Z,98555.00
2022-08-03T01:46:52.051Z,98560.41
2022-08-03T01:47:04.958Z,98558.69
2022-08-03T01:47:19.268Z,98562.25
2022-08-03T01:47:32.172Z,98559.56
2022-08-03T01:47:45.691Z,98565.81
2022-08-03T01:47:58.619Z,98555.00
2022-08-03T01:48:12.398Z,98560.25
2022-08-03T01:48:25.273Z,98559.41
2022-08-03T01:48:38.431Z,98557.41
2022-08-03T01:48:51.431Z,98562.09
2022-08-03T01:49:08.989Z,98560.41
2022-08-03T01:49:22.551Z,98559.56
2022-08-03T01:49:39.758Z,98559.41
2022-08-03T01:49:52.765Z,98554.84
2022-08-03T01:50:05.743Z,98554.84
2022-08-03T01:50:26.677Z,98556.69
2022-08-03T01:50:39.553Z,98548.75
2022-08-03T01:50:52.459Z,98555.84
2022-08-03T01:51:06.096Z,98551.28
2022-08-03T01:51:19.606Z,98551.16
2022-08-03T01:52:03.549Z,98553.28
2022-08-03T01:52:05.651Z,98544.31
2022-08-03T01:52:19.321Z,98552.28
2022-08-03T01:52:32.656Z,98554.16
2022-08-03T01:52:45.546Z,98553.28
2022-08-03T01:52:58.435Z,98553.28
2022-08-03T01:53:11.463Z,98554.16
2022-08-03T01:53:24.341Z,98554.25
2022-08-03T01:53:38.085Z,98556.25
2022-08-03T01:53:51.370Z,98550.44
2022-08-03T01:54:05.732Z,98558.41
2022-08-03T01:54:18.586Z,98551.16
2022-08-03T01:54:32.610Z,98551.16
2022-08-03T01:54:46.807Z,98549.31
2022-08-03T01:54:59.835Z,98551.16
2022-08-03T01:55:20.724Z,98554.16
2022-08-03T01:55:34.075Z,98561.25
2022-08-03T01:55:48.749Z,98547.91
2022-08-03T01:56:01.649Z,98556.72
2022-08-03T01:56:14.668Z,98553.84
2022-08-03T01:56:29.612Z,98555.56
2022-08-03T01:56:42.820Z,98552.16
2022-08-03T01:56:56.853Z,98553.31
2022-08-03T01:57:10.300Z,98557.56
2022-08-03T01:57:23.684Z,98551.00
2022-08-03T01:58:05.837Z,98555.25
2022-08-03T01:58:10.622Z,98553.56
2022-08-03T01:58:23.685Z,98553.56
2022-08-03T01:58:36.901Z,98551.84
2022-08-03T01:58:49.885Z,98554.56
2022-08-03T01:59:02.893Z,98551.00
2022-08-03T01:59:15.841Z,98556.25
2022-08-03T01:59:29.063Z,98556.12
2022-08-03T01:59:42.368Z,98556.12
2022-08-03T01:59:56.161Z,98555.25
2022-08-03T02:00:12.346Z,98554.25
2022-08-03T02:00:25.225Z,98556.97
2022-08-03T02:00:38.329Z,98556.25
2022-08-03T02:00:51.365Z,98551.84
2022-08-03T02:01:05.282Z,98557.25
2022-08-03T02:01:18.859Z,98549.31
2022-08-03T02:02:27.777Z,98554.72
2022-08-03T02:02:28.734Z,98555.72
2022-08-03T02:02:38.761Z,98554.00
2022-08-03T02:02:51.900Z,98556.56
2022-08-03T02:03:06.063Z,98553.84
2022-08-03T02:03:19.156Z,98556.41
2022-08-03T02:03:32.880Z,98553.56
2022-08-03T02:03:59.954Z,98560.13
2022-08-03T02:04:15.533Z,98550.16
2022-08-03T02:04:28.379Z,98554.56
2022-08-03T02:04:41.558Z,98556.72
2022-08-03T02:04:55.696Z,98559.56
2022-08-03T02:05:11.409Z,98557.00
2022-08-03T02:05:24.335Z,98551.44
2022-08-03T02:05:37.239Z,98554.84
2022-08-03T02:05:57.260Z,98553.00
2022-08-03T02:07:00.464Z,98557.41
2022-08-03T02:07:01.375Z,98550.31
2022-08-03T02:07:16.345Z,98553.00
2022-08-03T02:07:29.394Z,98556.72
2022-08-03T02:07:42.416Z,98556.56
2022-08-03T02:07:55.525Z,98552.16
2022-08-03T02:08:08.823Z,98555.84
2022-08-03T02:08:21.768Z,98559.56
2022-08-03T02:08:34.770Z,98547.91
2022-08-03T02:08:47.814Z,98550.44
2022-08-03T02:09:00.858Z,98550.44
2022-08-03T02:09:15.744Z,98552.16
2022-08-03T02:09:28.806Z,98542.34
2022-08-03T02:09:41.930Z,98553.00
2022-08-03T02:09:54.863Z,98545.91
2022-08-03T02:10:08.113Z,98549.44
2022-08-03T02:10:34.789Z,98554.00
2022-08-03T02:10:48.752Z,98545.03
2022-08-03T02:11:01.717Z,98556.72
2022-08-03T02:11:14.518Z,98547.75
2022-08-03T02:11:28.261Z,98553.00
2022-08-03T02:11:41.370Z,98553.84
2022-08-03T02:11:54.890Z,98553.31
2022-08-03T02:12:09.425Z,98552.44
2022-08-03T02:12:42.056Z,98555.00
2022-08-03T02:12:55.014Z,98549.44
2022-08-03T02:13:08.623Z,98552.16
2022-08-03T02:13:21.474Z,98548.59
2022-08-03T02:13:34.963Z,98542.34
2022-08-03T02:13:48.038Z,98553.31
2022-08-03T02:14:01.261Z,98550.75
2022-08-03T02:14:14.422Z,98548.75
2022-08-03T02:14:27.511Z,98550.59
2022-08-03T02:14:40.915Z,98551.44
2022-08-03T02:14:53.900Z,98552.44
2022-08-03T02:15:07.252Z,98547.19
2022-08-03T02:15:20.099Z,98553.44
2022-08-03T02:15:33.442Z,98550.88
2022-08-03T02:15:48.556Z,98549.03
2022-08-03T02:16:02.731Z,98557.84
2022-08-03T02:16:15.620Z,98551.59
2022-08-03T02:16:29.103Z,98556.16
2022-08-03T02:16:42.130Z,98554.44
2022-08-03T02:16:56.117Z,98553.44
2022-08-03T02:17:17.117Z,98552.44
2022-08-03T02:17:39.878Z,98554.44
2022-08-03T02:17:53.203Z,98550.75
2022-08-03T02:18:07.226Z,98550.88
2022-08-03T02:18:20.381Z,98555.16
2022-08-03T02:18:33.322Z,98555.16
2022-08-03T02:18:46.410Z,98551.88
2022-08-03T02:19:02.372Z,98556.00
2022-08-03T02:19:16.466Z,98553.72
2022-08-03T02:19:35.276Z,98559.13
2022-08-03T02:19:48.754Z,98556.41
2022-08-03T02:20:01.624Z,98559.84
2022-08-03T02:20:14.558Z,98557.16
2022-08-03T02:20:27.442Z,98552.72
2022-08-03T02:20:41.485Z,98555.41
2022-08-03T02:20:54.495Z,98551.75
2022-08-03T02:21:11.094Z,98557.16
2022-08-03T02:21:56.949Z,98551.59
2022-08-03T02:22:01.389Z,98557.16
2022-08-03T02:22:14.998Z,98553.44
2022-08-03T02:22:28.940Z,98552.72
2022-08-03T02:22:42.698Z,98553.56
2022-08-03T02:22:55.962Z,98554.56
2022-08-03T02:23:08.975Z,98554.44
2022-08-03T02:23:21.848Z,98554.56
2022-08-03T02:23:34.737Z,98547.59
2022-08-03T02:23:48.960Z,98550.59
2022-08-03T02:24:02.285Z,98549.59
2022-08-03T02:24:15.126Z,98554.16
2022-08-03T02:24:28.461Z,98556.72
2022-08-03T02:24:41.549Z,98551.16
2022-08-03T02:24:58.051Z,98555.56
2022-08-03T02:25:11.777Z,98549.31
2022-08-03T02:25:24.774Z,98556.41
2022-08-03T02:25:44.309Z,98545.91
2022-08-03T02:25:59.962Z,98550.75
2022-08-03T02:26:16.091Z,98554.44
2022-08-03T02:26:29.720Z,98553.47
2022-08-03T02:26:43.818Z,98552.47
2022-08-03T02:26:58.224Z,98549.59
2022-08-03T02:27:21.241Z,98551.47
2022-08-03T02:27:34.155Z,98555.31
2022-08-03T02:27:51.855Z,98554.44
2022-08-03T02:28:16.629Z,98552.75
2022-08-03T02:28:33.414Z,98551.59
2022-08-03T02:28:49.780Z,98553.16
2022-08-03T02:29:06.076Z,98555.56
2022-08-03T02:29:40.050Z,98555.56
2022-08-03T02:30:01.530Z,98553.00
2022-08-03T02:30:14.477Z,98556.00
2022-08-03T02:30:31.265Z,98551.59
2022-08-03T02:30:45.893Z,98554.44
2022-08-03T02:31:11.986Z,98555.31
2022-08-03T02:31:28.248Z,98551.47
2022-08-03T02:31:41.544Z,98555.00
2022-08-03T02:31:55.235Z,98549.59
2022-08-03T02:32:14.417Z,98548.91
2022-08-03T02:32:31.794Z,98555.59
2022-08-03T02:32:47.143Z,98559.38
2022-08-03T02:33:00.146Z,98560.13
2022-08-03T02:33:17.329Z,98557.53
2022-08-03T02:33:39.643Z,98558.31
2022-08-03T02:33:53.797Z,98557.31
2022-08-03T02:34:12.261Z,98555.44
2022-08-03T02:34:26.606Z,98555.31
2022-08-03T02:34:40.338Z,98557.00
2022-08-03T02:34:53.505Z,98553.59
2022-08-03T02:35:07.442Z,98555.44
2022-08-03T02:35:20.386Z,98553.59
2022-08-03T02:35:34.321Z,98554.44
2022-08-03T02:35:47.609Z,98553.84
2022-08-03T02:36:00.649Z,98556.69
2022-08-03T02:36:35.205Z,98560.13
2022-08-03T02:36:50.302Z,98554.59
2022-08-03T02:37:03.908Z,98554.59
2022-08-03T02:37:18.571Z,98555.59
2022-08-03T02:37:32.547Z,98550.19
2022-08-03T02:37:49.783Z,98554.59
2022-08-03T02:38:04.547Z,98556.31
2022-08-03T02:38:20.505Z,98561.22
2022-08-03T02:38:36.140Z,98552.13
2022-08-03T02:38:51.249Z,98558.69
2022-08-03T02:39:05.361Z,98549.56
2022-08-03T02:39:20.874Z,98551.28
2022-08-03T02:39:33.843Z,98554.84
2022-08-03T02:39:47.233Z,98558.31
2022-08-03T02:40:04.955Z,98557.31
2022-08-03T02:40:19.092Z,98556.53
2022-08-03T02:40:32.297Z,98555.59
2022-08-03T02:40:45.226Z,98552.97
2022-08-03T02:40:59.172Z,98549.44
2022-08-03T02:41:17.687Z,98557.53
2022-08-03T02:41:37.177Z,98552.97
2022-08-03T02:41:53.229Z,98556.53
2022-08-03T02:42:06.517Z,98555.59
2022-08-03T02:42:21.580Z,98558.31
2022-08-03T02:42:35.772Z,98554.28
2022-08-03T02:42:50.315Z,98548.72
2022-08-03T02:43:05.774Z,98552.28
2022-08-03T02:43:20.369Z,98553.44
2022-08-03T02:43:56.777Z,98554.41
2022-08-03T02:44:08.618Z,98559.69
2022-08-03T02:44:25.549Z,98554.41
2022-08-03T02:44:38.432Z,98554.97
2022-08-03T02:44:51.335Z,98559.53
2022-08-03T02:45:06.952Z,98550.44
2022-08-03T02:45:19.909Z,98557.81
2022-08-03T02:45:33.024Z,98553.28
2022-08-03T02:45:48.158Z,98548.72
2022-08-03T02:46:01.044Z,98548.56
2022-08-03T02:46:14.055Z,98554.13
2022-08-03T02:46:30.657Z,98557.81
2022-08-03T02:46:45.300Z,98549.56
2022-08-03T02:47:01.338Z,98553.13
2022-08-03T02:47:15.573Z,98548.72
2022-08-03T02:47:28.913Z,98550.72
2022-08-03T02:48:03.809Z,98548.03
2022-08-03T02:48:18.766Z,98556.12
2022-08-03T02:48:31.725Z,98548.72
2022-08-03T02:48:44.636Z,98549.72
2022-08-03T02:48:57.664Z,98555.97
2022-08-03T02:49:49.670Z,98549.03
2022-08-03T02:49:50.438Z,98553.56
2022-08-03T02:50:05.121Z,98549.03
2022-08-03T02:50:18.081Z,98552.72
2022-08-03T02:50:31.130Z,98555.41
2022-08-03T02:50:44.747Z,98546.63
2022-08-03T02:50:59.597Z,98552.87
2022-08-03T02:51:12.624Z,98553.56
2022-08-03T02:51:25.518Z,98558.81
2022-08-03T02:51:38.409Z,98552.72
2022-08-03T02:51:51.299Z,98559.69
2022-08-03T02:52:04.473Z,98552.72
2022-08-03T02:52:17.424Z,98553.72
2022-08-03T02:52:30.486Z,98554.72
2022-08-03T02:53:02.342Z,98557.28
2022-08-03T02:53:15.368Z,98548.47
2022-08-03T02:53:28.667Z,98553.13
2022-08-03T02:53:41.558Z,98546.03
2022-08-03T02:53:54.469Z,98547.72
2022-08-03T02:54:09.408Z,98554.00
2022-08-03T02:54:23.125Z,98558.13
2022-08-03T02:54:36.075Z,98554.56
2022-08-03T02:54:49.579Z,98557.41
2022-08-03T02:55:03.119Z,98551.88
2022-08-03T02:55:16.077Z,98557.12
2022-08-03T02:55:29.308Z,98552.44
2022-08-03T02:55:45.673Z,98550.03
2022-08-03T02:55:59.116Z,98551.00
2022-08-03T02:56:12.078Z,98553.56
2022-08-03T02:56:26.192Z,98557.97
2022-08-03T02:56:39.095Z,98554.41
2022-08-03T02:56:52.518Z,98550.72
2022-08-03T02:57:07.615Z,98559.13
2022-08-03T02:57:20.548Z,98553.00
2022-08-03T02:57:33.882Z,98553.28
2022-08-03T02:57:46.901Z,98554.13
2022-08-03T02:58:01.335Z,98552.41
2022-08-03T02:58:14.906Z,98554.00
2022-08-03T02:58:27.778Z,98551.16
2022-08-03T02:58:43.055Z,98559.25
2022-08-03T02:58:57.012Z,98551.16
2022-08-03T02:59:09.896Z,98548.47
2022-08-03T02:59:22.766Z,98553.00
2022-08-03T02:59:36.050Z,98554.97
2022-08-03T02:59:49.043Z,98559.41
2022-08-03T03:00:01.907Z,98551.44
2022-08-03T03:00:27.484Z,98550.31
2022-08-03T03:00:42.256Z,98556.81
2022-08-03T03:00:55.677Z,98554.88
2022-08-03T03:01:08.754Z,98555.72
2022-08-03T03:01:22.386Z,98554.56
2022-08-03T03:01:35.301Z,98557.12
2022-08-03T03:01:48.348Z,98551.44
2022-08-03T03:02:01.295Z,98553.44
2022-08-03T03:02:16.981Z,98549.31
2022-08-03T03:02:30.149Z,98550.31
2022-08-03T03:02:44.501Z,98553.00
2022-08-03T03:03:00.510Z,98549.47
2022-08-03T03:03:14.589Z,98553.00
2022-08-03T03:03:28.268Z,98553.72
2022-08-03T03:03:45.450Z,98552.72
2022-08-03T03:04:01.467Z,98558.81
2022-08-03T03:04:14.758Z,98552.72
2022-08-03T03:04:32.967Z,98554.00
2022-08-03T03:05:50.683Z,98558.69
2022-08-03T03:05:52.990Z,98555.13
2022-08-03T03:05:57.389Z,98554.97
2022-08-03T03:06:10.769Z,98556.72
2022-08-03T03:06:26.770Z,98560.13
2022-08-03T03:06:43.106Z,98560.97
2022-08-03T03:07:00.181Z,98552.72
2022-08-03T03:07:14.806Z,98554.72
2022-08-03T03:07:28.847Z,98561.13
2022-08-03T03:07:51.939Z,98553.13
2022-08-03T03:08:05.759Z,98557.69
2022-08-03T03:08:31.878Z,98555.97
2022-08-03T03:08:46.119Z,98554.41
2022-08-03T03:09:00.112Z,98554.56
2022-08-03T03:09:22.417Z,98551.88
2022-08-03T03:09:40.344Z,98551.56
2022-08-03T03:09:56.452Z,98555.28
2022-08-03T03:10:09.510Z,98551.88
2022-08-03T03:10:23.163Z,98552.72
2022-08-03T03:10:36.083Z,98551.88
2022-08-03T03:10:49.157Z,98558.41
2022-08-03T03:11:08.242Z,98553.00
2022-08-03T03:11:21.828Z,98551.88
2022-08-03T03:11:39.160Z,98556.28
2022-08-03T03:11:52.183Z,98554.41
2022-08-03T03:12:07.783Z,98549.00
2022-08-03T03:12:20.689Z,98550.72
2022-08-03T03:12:33.771Z,98553.56
2022-08-03T03:12:47.069Z,98547.16
2022-08-03T03:13:00.083Z,98554.41
2022-08-03T03:13:14.682Z,98552.72
2022-08-03T03:13:28.965Z,98556.28
2022-08-03T03:13:43.996Z,98549.88
2022-08-03T03:13:57.210Z,98554.56
2022-08-03T03:14:10.077Z,98556.28
2022-08-03T03:14:33.997Z,98559.69
2022-08-03T03:14:47.184Z,98555.28
2022-08-03T03:15:00.292Z,98551.31
2022-08-03T03:15:13.144Z,98553.72
2022-08-03T03:15:26.643Z,98550.31
2022-08-03T03:15:40.006Z,98548.47
2022-08-03T03:15:53.299Z,98548.16
2022-08-03T03:16:07.427Z,98554.13
2022-08-03T03:16:26.329Z,98553.28
2022-08-03T03:16:40.309Z,98554.97
2022-08-03T03:16:57.684Z,98550.56
2022-08-03T03:17:26.187Z,98556.12
2022-08-03T03:17:39.258Z,98552.00
2022-08-03T03:17:52.243Z,98554.41
2022-08-03T03:18:06.384Z,98552.56
2022-08-03T03:18:22.629Z,98549.88
2022-08-03T03:18:36.030Z,98555.41
2022-08-03T03:18:49.848Z,98551.88
2022-08-03T03:19:03.197Z,98553.41
2022-08-03T03:19:16.110Z,98556.28
2022-08-03T03:19:29.455Z,98547.31
2022-08-03T03:19:42.360Z,98555.56